Terminal Aerodrome Forecast
Issued by NWS

Home | Current Version | Previous Version | Text Only | Print | Product List | Glossary On
Versions: 1 2 3 4 5 6 7 8 9 10 11 12 13 14 15 16 17 18 19 20 21 22
000
FTUS43 KILX 301742 AAC
TAFBMI
TAF AMD
KBMI 301742Z 3018/3118 22005KT P6SM SCT030 BKN080
     FM302200 29005KT P6SM VCTS BKN110CB
      TEMPO 3022/3024 5SM -TSRA BR
     FM310300 VRB03KT P6SM VCTS SCT020CB BKN070
     FM310500 VRB03KT 3SM BR VCSH BKN080
     FM311100 33004KT 2SM BR BKN015
     FM311200 33004KT 1SM BR OVC015
     FM311500 34005KT P6SM BKN045=

USA.gov is the U.S. government's official web portal to all federal, state and local government web resources and services.